sensor_id;sensor_type;location;lat;lon;timestamp;P1;durP1;ratioP1;P2;durP2;ratioP2
8399;SDS011;4237;47.030;15.396;2023-04-28T00:00:39;7.63;;;3.87;;
8399;SDS011;4237;47.030;15.396;2023-04-28T00:03:08;9.23;;;4.00;;
8399;SDS011;4237;47.030;15.396;2023-04-28T00:05:36;5.03;;;4.10;;
8399;SDS011;4237;47.030;15.396;2023-04-28T00:08:05;9.83;;;4.57;;
8399;SDS011;4237;47.030;15.396;2023-04-28T00:10:33;5.47;;;3.50;;
8399;SDS011;4237;47.030;15.396;2023-04-28T00:13:01;5.77;;;4.07;;
8399;SDS011;4237;47.030;15.396;2023-04-28T00:15:29;6.00;;;3.77;;
8399;SDS011;4237;47.030;15.396;2023-04-28T00:17:58;8.90;;;4.03;;
8399;SDS011;4237;47.030;15.396;2023-04-28T00:20:26;6.83;;;4.03;;
8399;SDS011;4237;47.030;15.396;2023-04-28T00:22:54;10.03;;;4.00;;
8399;SDS011;4237;47.030;15.396;2023-04-28T00:25:22;8.03;;;3.57;;
8399;SDS011;4237;47.030;15.396;2023-04-28T00:27:50;6.20;;;3.73;;
8399;SDS011;4237;47.030;15.396;2023-04-28T00:30:18;5.70;;;3.50;;
8399;SDS011;4237;47.030;15.396;2023-04-28T00:32:47;6.93;;;3.70;;
8399;SDS011;4237;47.030;15.396;2023-04-28T00:35:15;7.67;;;3.80;;
8399;SDS011;4237;47.030;15.396;2023-04-28T00:37:43;5.70;;;3.77;;
8399;SDS011;4237;47.030;15.396;2023-04-28T00:40:12;5.33;;;3.77;;
8399;SDS011;4237;47.030;15.396;2023-04-28T00:42:40;6.67;;;4.03;;
8399;SDS011;4237;47.030;15.396;2023-04-28T00:45:08;7.07;;;4.07;;
8399;SDS011;4237;47.030;15.396;2023-04-28T00:47:36;10.57;;;4.33;;
8399;SDS011;4237;47.030;15.396;2023-04-28T00:50:05;6.03;;;3.73;;
8399;SDS011;4237;47.030;15.396;2023-04-28T00:52:54;11.93;;;4.20;;
8399;SDS011;4237;47.030;15.396;2023-04-28T00:55:22;8.17;;;3.90;;
8399;SDS011;4237;47.030;15.396;2023-04-28T00:57:51;7.67;;;4.00;;
8399;SDS011;4237;47.030;15.396;2023-04-28T01:00:21;7.27;;;3.63;;
8399;SDS011;4237;47.030;15.396;2023-04-28T01:02:50;7.80;;;4.00;;
8399;SDS011;4237;47.030;15.396;2023-04-28T01:05:19;9.13;;;4.10;;
8399;SDS011;4237;47.030;15.396;2023-04-28T01:07:47;9.13;;;4.17;;
8399;SDS011;4237;47.030;15.396;2023-04-28T01:10:15;7.70;;;4.50;;
8399;SDS011;4237;47.030;15.396;2023-04-28T01:12:43;8.23;;;4.10;;
8399;SDS011;4237;47.030;15.396;2023-04-28T01:15:15;6.30;;;4.23;;
8399;SDS011;4237;47.030;15.396;2023-04-28T01:17:49;5.27;;;3.97;;
8399;SDS011;4237;47.030;15.396;2023-04-28T01:20:14;6.47;;;4.10;;
8399;SDS011;4237;47.030;15.396;2023-04-28T01:22:42;8.43;;;4.40;;
8399;SDS011;4237;47.030;15.396;2023-04-28T01:25:10;9.17;;;4.43;;
8399;SDS011;4237;47.030;15.396;2023-04-28T01:27:38;7.57;;;4.40;;
8399;SDS011;4237;47.030;15.396;2023-04-28T01:30:07;5.97;;;4.40;;
8399;SDS011;4237;47.030;15.396;2023-04-28T01:32:35;8.13;;;4.83;;
8399;SDS011;4237;47.030;15.396;2023-04-28T01:35:04;7.20;;;4.30;;
8399;SDS011;4237;47.030;15.396;2023-04-28T01:37:32;7.70;;;4.10;;
8399;SDS011;4237;47.030;15.396;2023-04-28T01:40:01;4.73;;;3.83;;
8399;SDS011;4237;47.030;15.396;2023-04-28T01:42:29;5.63;;;4.10;;
8399;SDS011;4237;47.030;15.396;2023-04-28T01:44:57;6.53;;;4.00;;
8399;SDS011;4237;47.030;15.396;2023-04-28T01:47:25;6.40;;;4.00;;
8399;SDS011;4237;47.030;15.396;2023-04-28T01:49:53;7.53;;;3.87;;
8399;SDS011;4237;47.030;15.396;2023-04-28T01:52:21;6.07;;;4.20;;
8399;SDS011;4237;47.030;15.396;2023-04-28T01:54:50;8.27;;;4.40;;
8399;SDS011;4237;47.030;15.396;2023-04-28T01:57:18;11.03;;;4.43;;
8399;SDS011;4237;47.030;15.396;2023-04-28T01:59:47;6.60;;;4.33;;
8399;SDS011;4237;47.030;15.396;2023-04-28T02:02:15;8.37;;;4.60;;
8399;SDS011;4237;47.030;15.396;2023-04-28T02:04:43;7.73;;;4.13;;
8399;SDS011;4237;47.030;15.396;2023-04-28T02:07:11;6.70;;;4.80;;
8399;SDS011;4237;47.030;15.396;2023-04-28T02:09:40;6.67;;;4.73;;
8399;SDS011;4237;47.030;15.396;2023-04-28T02:12:08;7.00;;;4.40;;
8399;SDS011;4237;47.030;15.396;2023-04-28T02:14:36;6.07;;;4.30;;
8399;SDS011;4237;47.030;15.396;2023-04-28T02:17:04;7.53;;;4.83;;
8399;SDS011;4237;47.030;15.396;2023-04-28T02:19:32;10.50;;;4.80;;
8399;SDS011;4237;47.030;15.396;2023-04-28T02:22:01;8.43;;;5.50;;
8399;SDS011;4237;47.030;15.396;2023-04-28T02:24:29;10.63;;;5.20;;
8399;SDS011;4237;47.030;15.396;2023-04-28T02:26:58;7.00;;;5.80;;
8399;SDS011;4237;47.030;15.396;2023-04-28T02:29:26;12.60;;;5.63;;
8399;SDS011;4237;47.030;15.396;2023-04-28T02:31:54;12.30;;;5.53;;
8399;SDS011;4237;47.030;15.396;2023-04-28T02:34:22;7.33;;;4.87;;
8399;SDS011;4237;47.030;15.396;2023-04-28T02:36:50;6.70;;;5.10;;
8399;SDS011;4237;47.030;15.396;2023-04-28T02:39:18;8.20;;;5.03;;
8399;SDS011;4237;47.030;15.396;2023-04-28T02:41:48;8.70;;;4.90;;
8399;SDS011;4237;47.030;15.396;2023-04-28T02:44:17;7.17;;;4.70;;
8399;SDS011;4237;47.030;15.396;2023-04-28T02:46:45;9.53;;;4.57;;
8399;SDS011;4237;47.030;15.396;2023-04-28T02:49:13;8.73;;;5.07;;
8399;SDS011;4237;47.030;15.396;2023-04-28T02:51:42;6.47;;;4.33;;
8399;SDS011;4237;47.030;15.396;2023-04-28T02:54:10;7.40;;;5.00;;
8399;SDS011;4237;47.030;15.396;2023-04-28T02:56:38;8.43;;;4.80;;
8399;SDS011;4237;47.030;15.396;2023-04-28T02:59:07;10.60;;;4.83;;
8399;SDS011;4237;47.030;15.396;2023-04-28T03:01:35;6.10;;;4.87;;
8399;SDS011;4237;47.030;15.396;2023-04-28T03:04:03;7.13;;;5.27;;
8399;SDS011;4237;47.030;15.396;2023-04-28T03:06:32;8.77;;;4.53;;
8399;SDS011;4237;47.030;15.396;2023-04-28T03:09:00;9.40;;;4.70;;
8399;SDS011;4237;47.030;15.396;2023-04-28T03:11:29;9.00;;;4.40;;
8399;SDS011;4237;47.030;15.396;2023-04-28T03:13:57;8.53;;;4.37;;
8399;SDS011;4237;47.030;15.396;2023-04-28T03:16:25;10.57;;;4.50;;
8399;SDS011;4237;47.030;15.396;2023-04-28T03:18:53;7.43;;;4.57;;
8399;SDS011;4237;47.030;15.396;2023-04-28T03:21:22;9.13;;;4.87;;
8399;SDS011;4237;47.030;15.396;2023-04-28T03:23:50;11.03;;;4.63;;
8399;SDS011;4237;47.030;15.396;2023-04-28T03:26:19;9.13;;;4.30;;
8399;SDS011;4237;47.030;15.396;2023-04-28T03:28:47;8.47;;;5.70;;
8399;SDS011;4237;47.030;15.396;2023-04-28T03:31:15;9.00;;;5.50;;
8399;SDS011;4237;47.030;15.396;2023-04-28T03:33:44;8.03;;;5.73;;
8399;SDS011;4237;47.030;15.396;2023-04-28T03:36:13;10.20;;;5.27;;
8399;SDS011;4237;47.030;15.396;2023-04-28T03:38:41;9.40;;;5.77;;
8399;SDS011;4237;47.030;15.396;2023-04-28T03:41:09;6.93;;;5.50;;
8399;SDS011;4237;47.030;15.396;2023-04-28T03:43:37;9.63;;;5.67;;
8399;SDS011;4237;47.030;15.396;2023-04-28T03:46:05;8.40;;;5.83;;
8399;SDS011;4237;47.030;15.396;2023-04-28T03:48:34;11.03;;;6.23;;
8399;SDS011;4237;47.030;15.396;2023-04-28T03:51:02;9.93;;;5.83;;
8399;SDS011;4237;47.030;15.396;2023-04-28T03:53:30;15.80;;;5.70;;
8399;SDS011;4237;47.030;15.396;2023-04-28T03:58:46;8.80;;;5.33;;
8399;SDS011;4237;47.030;15.396;2023-04-28T04:01:14;10.20;;;5.47;;
8399;SDS011;4237;47.030;15.396;2023-04-28T04:03:42;9.27;;;5.53;;
8399;SDS011;4237;47.030;15.396;2023-04-28T04:06:10;12.70;;;5.37;;
8399;SDS011;4237;47.030;15.396;2023-04-28T04:08:39;12.37;;;5.87;;
8399;SDS011;4237;47.030;15.396;2023-04-28T04:11:07;10.13;;;4.80;;
8399;SDS011;4237;47.030;15.396;2023-04-28T04:13:35;8.37;;;4.73;;
8399;SDS011;4237;47.030;15.396;2023-04-28T04:16:04;9.03;;;5.10;;
8399;SDS011;4237;47.030;15.396;2023-04-28T04:18:32;10.47;;;4.83;;
8399;SDS011;4237;47.030;15.396;2023-04-28T04:21:01;8.67;;;4.93;;
8399;SDS011;4237;47.030;15.396;2023-04-28T04:23:29;21.20;;;9.13;;
8399;SDS011;4237;47.030;15.396;2023-04-28T04:25:57;14.93;;;8.03;;
8399;SDS011;4237;47.030;15.396;2023-04-28T04:28:25;17.27;;;9.30;;
8399;SDS011;4237;47.030;15.396;2023-04-28T04:30:54;16.00;;;8.70;;
8399;SDS011;4237;47.030;15.396;2023-04-28T04:33:22;16.30;;;8.03;;
8399;SDS011;4237;47.030;15.396;2023-04-28T04:35:50;16.60;;;7.90;;
8399;SDS011;4237;47.030;15.396;2023-04-28T04:38:18;15.07;;;6.50;;
8399;SDS011;4237;47.030;15.396;2023-04-28T04:40:47;18.90;;;6.07;;
8399;SDS011;4237;47.030;15.396;2023-04-28T04:43:15;10.23;;;4.87;;
8399;SDS011;4237;47.030;15.396;2023-04-28T04:45:43;9.87;;;4.93;;
8399;SDS011;4237;47.030;15.396;2023-04-28T04:48:12;13.17;;;5.03;;
8399;SDS011;4237;47.030;15.396;2023-04-28T04:50:40;8.67;;;4.67;;
8399;SDS011;4237;47.030;15.396;2023-04-28T04:53:10;7.97;;;4.70;;
8399;SDS011;4237;47.030;15.396;2023-04-28T04:55:38;10.77;;;5.20;;
8399;SDS011;4237;47.030;15.396;2023-04-28T04:58:07;8.00;;;4.70;;
8399;SDS011;4237;47.030;15.396;2023-04-28T05:00:35;9.77;;;4.60;;
8399;SDS011;4237;47.030;15.396;2023-04-28T05:03:04;9.43;;;5.33;;
8399;SDS011;4237;47.030;15.396;2023-04-28T05:05:32;13.83;;;5.17;;
8399;SDS011;4237;47.030;15.396;2023-04-28T05:08:00;12.37;;;4.97;;
8399;SDS011;4237;47.030;15.396;2023-04-28T05:10:30;16.03;;;6.67;;
8399;SDS011;4237;47.030;15.396;2023-04-28T05:12:58;15.27;;;7.83;;
8399;SDS011;4237;47.030;15.396;2023-04-28T05:15:26;18.43;;;9.63;;
8399;SDS011;4237;47.030;15.396;2023-04-28T05:17:55;16.00;;;7.63;;
8399;SDS011;4237;47.030;15.396;2023-04-28T05:20:23;13.63;;;6.57;;
8399;SDS011;4237;47.030;15.396;2023-04-28T05:22:51;12.70;;;4.93;;
8399;SDS011;4237;47.030;15.396;2023-04-28T05:25:20;14.17;;;5.03;;
8399;SDS011;4237;47.030;15.396;2023-04-28T05:27:48;8.77;;;5.07;;
8399;SDS011;4237;47.030;15.396;2023-04-28T05:30:16;11.07;;;5.10;;
8399;SDS011;4237;47.030;15.396;2023-04-28T05:32:44;12.80;;;5.23;;
8399;SDS011;4237;47.030;15.396;2023-04-28T05:35:12;13.30;;;5.57;;
8399;SDS011;4237;47.030;15.396;2023-04-28T05:37:41;11.27;;;5.27;;
8399;SDS011;4237;47.030;15.396;2023-04-28T05:40:11;15.93;;;5.43;;
8399;SDS011;4237;47.030;15.396;2023-04-28T05:42:39;12.03;;;5.77;;
8399;SDS011;4237;47.030;15.396;2023-04-28T05:45:08;8.53;;;5.40;;
8399;SDS011;4237;47.030;15.396;2023-04-28T05:47:36;12.77;;;5.17;;
8399;SDS011;4237;47.030;15.396;2023-04-28T05:50:05;7.47;;;5.00;;
8399;SDS011;4237;47.030;15.396;2023-04-28T05:52:33;12.40;;;5.57;;
8399;SDS011;4237;47.030;15.396;2023-04-28T05:55:02;8.23;;;4.90;;
8399;SDS011;4237;47.030;15.396;2023-04-28T05:57:30;12.37;;;5.63;;
8399;SDS011;4237;47.030;15.396;2023-04-28T05:59:58;9.17;;;5.07;;
8399;SDS011;4237;47.030;15.396;2023-04-28T06:02:26;15.80;;;5.97;;
8399;SDS011;4237;47.030;15.396;2023-04-28T06:04:55;9.30;;;4.77;;
8399;SDS011;4237;47.030;15.396;2023-04-28T06:07:23;12.33;;;5.80;;
8399;SDS011;4237;47.030;15.396;2023-04-28T06:09:51;11.00;;;5.10;;
8399;SDS011;4237;47.030;15.396;2023-04-28T06:12:19;8.40;;;4.90;;
8399;SDS011;4237;47.030;15.396;2023-04-28T06:14:47;8.17;;;5.47;;
8399;SDS011;4237;47.030;15.396;2023-04-28T06:19:43;14.00;;;5.63;;
8399;SDS011;4237;47.030;15.396;2023-04-28T06:22:11;14.73;;;5.63;;
8399;SDS011;4237;47.030;15.396;2023-04-28T06:24:39;9.83;;;4.83;;
8399;SDS011;4237;47.030;15.396;2023-04-28T06:27:09;13.20;;;5.30;;
8399;SDS011;4237;47.030;15.396;2023-04-28T06:29:37;12.40;;;5.60;;
8399;SDS011;4237;47.030;15.396;2023-04-28T06:32:05;9.90;;;4.80;;
8399;SDS011;4237;47.030;15.396;2023-04-28T06:34:33;7.30;;;5.00;;
8399;SDS011;4237;47.030;15.396;2023-04-28T06:37:02;10.37;;;4.73;;
8399;SDS011;4237;47.030;15.396;2023-04-28T06:39:30;11.47;;;5.03;;
8399;SDS011;4237;47.030;15.396;2023-04-28T06:41:58;9.93;;;4.83;;
8399;SDS011;4237;47.030;15.396;2023-04-28T06:44:28;13.03;;;5.67;;
8399;SDS011;4237;47.030;15.396;2023-04-28T06:46:56;13.63;;;5.00;;
8399;SDS011;4237;47.030;15.396;2023-04-28T06:49:24;8.03;;;4.40;;
8399;SDS011;4237;47.030;15.396;2023-04-28T06:51:53;8.33;;;4.50;;
8399;SDS011;4237;47.030;15.396;2023-04-28T06:54:21;8.67;;;4.63;;
8399;SDS011;4237;47.030;15.396;2023-04-28T06:56:49;12.63;;;4.70;;
8399;SDS011;4237;47.030;15.396;2023-04-28T06:59:17;7.10;;;4.77;;
8399;SDS011;4237;47.030;15.396;2023-04-28T07:01:45;12.60;;;4.43;;
8399;SDS011;4237;47.030;15.396;2023-04-28T07:04:14;7.23;;;4.73;;
8399;SDS011;4237;47.030;15.396;2023-04-28T07:06:42;10.40;;;4.93;;
8399;SDS011;4237;47.030;15.396;2023-04-28T07:09:10;12.33;;;5.60;;
8399;SDS011;4237;47.030;15.396;2023-04-28T07:11:39;8.77;;;4.73;;
8399;SDS011;4237;47.030;15.396;2023-04-28T07:14:07;9.10;;;4.30;;
8399;SDS011;4237;47.030;15.396;2023-04-28T07:16:35;11.13;;;5.13;;
8399;SDS011;4237;47.030;15.396;2023-04-28T07:19:03;13.67;;;5.27;;
8399;SDS011;4237;47.030;15.396;2023-04-28T07:21:32;8.83;;;4.93;;
8399;SDS011;4237;47.030;15.396;2023-04-28T07:24:00;8.63;;;4.80;;
8399;SDS011;4237;47.030;15.396;2023-04-28T07:26:29;9.97;;;4.90;;
8399;SDS011;4237;47.030;15.396;2023-04-28T07:28:57;8.83;;;4.70;;
8399;SDS011;4237;47.030;15.396;2023-04-28T07:31:25;10.97;;;4.60;;
8399;SDS011;4237;47.030;15.396;2023-04-28T07:33:55;8.60;;;4.20;;
8399;SDS011;4237;47.030;15.396;2023-04-28T07:36:23;10.20;;;4.30;;
8399;SDS011;4237;47.030;15.396;2023-04-28T07:38:52;9.00;;;4.10;;
8399;SDS011;4237;47.030;15.396;2023-04-28T07:41:20;11.20;;;4.43;;
8399;SDS011;4237;47.030;15.396;2023-04-28T07:43:49;9.50;;;4.13;;
8399;SDS011;4237;47.030;15.396;2023-04-28T07:46:17;8.67;;;4.87;;
8399;SDS011;4237;47.030;15.396;2023-04-28T07:48:45;7.83;;;4.60;;
8399;SDS011;4237;47.030;15.396;2023-04-28T07:51:13;10.43;;;4.60;;
8399;SDS011;4237;47.030;15.396;2023-04-28T07:53:42;8.60;;;4.63;;
8399;SDS011;4237;47.030;15.396;2023-04-28T07:56:10;9.67;;;4.93;;
8399;SDS011;4237;47.030;15.396;2023-04-28T07:58:39;10.50;;;5.07;;
8399;SDS011;4237;47.030;15.396;2023-04-28T08:01:08;10.73;;;4.80;;
8399;SDS011;4237;47.030;15.396;2023-04-28T08:03:36;12.33;;;4.43;;
8399;SDS011;4237;47.030;15.396;2023-04-28T08:06:04;11.83;;;5.10;;
8399;SDS011;4237;47.030;15.396;2023-04-28T08:08:32;9.60;;;4.23;;
8399;SDS011;4237;47.030;15.396;2023-04-28T08:11:01;8.77;;;4.60;;
8399;SDS011;4237;47.030;15.396;2023-04-28T08:13:29;8.50;;;4.77;;
8399;SDS011;4237;47.030;15.396;2023-04-28T08:15:57;8.80;;;4.20;;
8399;SDS011;4237;47.030;15.396;2023-04-28T08:18:28;9.70;;;4.30;;
8399;SDS011;4237;47.030;15.396;2023-04-28T08:20:56;11.70;;;5.03;;
8399;SDS011;4237;47.030;15.396;2023-04-28T08:23:24;9.47;;;4.40;;
8399;SDS011;4237;47.030;15.396;2023-04-28T08:25:54;10.23;;;4.73;;
8399;SDS011;4237;47.030;15.396;2023-04-28T08:28:22;7.90;;;4.70;;
8399;SDS011;4237;47.030;15.396;2023-04-28T08:30:51;12.23;;;4.60;;
8399;SDS011;4237;47.030;15.396;2023-04-28T08:33:20;15.37;;;5.13;;
8399;SDS011;4237;47.030;15.396;2023-04-28T08:35:51;9.33;;;4.73;;
8399;SDS011;4237;47.030;15.396;2023-04-28T08:38:19;8.47;;;4.90;;
8399;SDS011;4237;47.030;15.396;2023-04-28T08:40:49;8.83;;;5.00;;
8399;SDS011;4237;47.030;15.396;2023-04-28T08:43:18;7.60;;;5.17;;
8399;SDS011;4237;47.030;15.396;2023-04-28T08:45:47;13.63;;;5.30;;
8399;SDS011;4237;47.030;15.396;2023-04-28T08:48:17;9.30;;;4.60;;
8399;SDS011;4237;47.030;15.396;2023-04-28T08:50:53;11.80;;;4.70;;
8399;SDS011;4237;47.030;15.396;2023-04-28T08:53:20;8.47;;;5.03;;
8399;SDS011;4237;47.030;15.396;2023-04-28T08:55:49;17.40;;;5.77;;
8399;SDS011;4237;47.030;15.396;2023-04-28T08:58:18;7.80;;;4.63;;
8399;SDS011;4237;47.030;15.396;2023-04-28T09:00:46;12.77;;;5.27;;
8399;SDS011;4237;47.030;15.396;2023-04-28T09:03:14;10.37;;;4.93;;
8399;SDS011;4237;47.030;15.396;2023-04-28T09:05:43;9.07;;;4.43;;
8399;SDS011;4237;47.030;15.396;2023-04-28T09:08:11;8.27;;;5.10;;
8399;SDS011;4237;47.030;15.396;2023-04-28T09:10:39;10.27;;;5.10;;
8399;SDS011;4237;47.030;15.396;2023-04-28T09:13:07;9.57;;;5.17;;
8399;SDS011;4237;47.030;15.396;2023-04-28T09:15:36;7.67;;;5.20;;
8399;SDS011;4237;47.030;15.396;2023-04-28T09:18:07;8.23;;;5.30;;
8399;SDS011;4237;47.030;15.396;2023-04-28T09:20:35;11.63;;;5.93;;
8399;SDS011;4237;47.030;15.396;2023-04-28T09:23:19;8.87;;;5.30;;
8399;SDS011;4237;47.030;15.396;2023-04-28T09:25:59;9.67;;;5.87;;
8399;SDS011;4237;47.030;15.396;2023-04-28T09:28:24;11.17;;;5.73;;
8399;SDS011;4237;47.030;15.396;2023-04-28T09:30:52;9.43;;;5.23;;
8399;SDS011;4237;47.030;15.396;2023-04-28T09:33:21;7.83;;;5.47;;
8399;SDS011;4237;47.030;15.396;2023-04-28T09:35:49;11.87;;;5.20;;
8399;SDS011;4237;47.030;15.396;2023-04-28T09:38:18;12.43;;;5.30;;
8399;SDS011;4237;47.030;15.396;2023-04-28T09:40:57;9.67;;;5.37;;
8399;SDS011;4237;47.030;15.396;2023-04-28T09:43:27;7.27;;;4.83;;
8399;SDS011;4237;47.030;15.396;2023-04-28T09:45:55;20.23;;;5.63;;
8399;SDS011;4237;47.030;15.396;2023-04-28T09:48:35;11.43;;;5.40;;
8399;SDS011;4237;47.030;15.396;2023-04-28T09:51:00;15.13;;;5.03;;
8399;SDS011;4237;47.030;15.396;2023-04-28T09:53:29;12.07;;;5.80;;
8399;SDS011;4237;47.030;15.396;2023-04-28T09:55:58;11.40;;;6.40;;
8399;SDS011;4237;47.030;15.396;2023-04-28T09:58:27;15.10;;;5.90;;
8399;SDS011;4237;47.030;15.396;2023-04-28T10:00:56;11.33;;;5.60;;
8399;SDS011;4237;47.030;15.396;2023-04-28T10:03:25;20.77;;;5.87;;
8399;SDS011;4237;47.030;15.396;2023-04-28T10:05:55;10.83;;;4.93;;
8399;SDS011;4237;47.030;15.396;2023-04-28T10:08:24;11.03;;;5.57;;
8399;SDS011;4237;47.030;15.396;2023-04-28T10:10:54;20.50;;;6.47;;
8399;SDS011;4237;47.030;15.396;2023-04-28T10:13:23;12.27;;;5.53;;
8399;SDS011;4237;47.030;15.396;2023-04-28T10:15:51;14.20;;;6.00;;
8399;SDS011;4237;47.030;15.396;2023-04-28T10:18:24;9.50;;;5.93;;
8399;SDS011;4237;47.030;15.396;2023-04-28T10:20:56;12.40;;;6.03;;
8399;SDS011;4237;47.030;15.396;2023-04-28T10:23:40;9.90;;;5.90;;
8399;SDS011;4237;47.030;15.396;2023-04-28T10:26:01;22.90;;;6.30;;
8399;SDS011;4237;47.030;15.396;2023-04-28T10:28:30;42.17;;;8.63;;
8399;SDS011;4237;47.030;15.396;2023-04-28T10:31:11;14.17;;;5.43;;
8399;SDS011;4237;47.030;15.396;2023-04-28T10:33:39;17.70;;;6.03;;
8399;SDS011;4237;47.030;15.396;2023-04-28T10:36:07;63.97;;;9.03;;
8399;SDS011;4237;47.030;15.396;2023-04-28T10:38:36;14.87;;;6.13;;
8399;SDS011;4237;47.030;15.396;2023-04-28T10:41:05;8.37;;;5.80;;
8399;SDS011;4237;47.030;15.396;2023-04-28T10:43:35;8.17;;;5.70;;
8399;SDS011;4237;47.030;15.396;2023-04-28T10:46:06;13.43;;;6.00;;
8399;SDS011;4237;47.030;15.396;2023-04-28T10:56:22;8.90;;;5.97;;
8399;SDS011;4237;47.030;15.396;2023-04-28T10:58:48;9.90;;;6.10;;
8399;SDS011;4237;47.030;15.396;2023-04-28T11:03:55;12.43;;;6.10;;
8399;SDS011;4237;47.030;15.396;2023-04-28T11:06:29;10.00;;;6.07;;
8399;SDS011;4237;47.030;15.396;2023-04-28T11:14:31;16.37;;;6.13;;
8399;SDS011;4237;47.030;15.396;2023-04-28T11:17:00;16.03;;;6.30;;
8399;SDS011;4237;47.030;15.396;2023-04-28T11:19:32;10.30;;;5.70;;
8399;SDS011;4237;47.030;15.396;2023-04-28T11:22:02;10.70;;;5.67;;
8399;SDS011;4237;47.030;15.396;2023-04-28T11:24:31;15.23;;;6.40;;
8399;SDS011;4237;47.030;15.396;2023-04-28T11:26:59;9.77;;;5.80;;
8399;SDS011;4237;47.030;15.396;2023-04-28T11:29:32;13.57;;;6.00;;
8399;SDS011;4237;47.030;15.396;2023-04-28T11:32:04;10.13;;;6.40;;
8399;SDS011;4237;47.030;15.396;2023-04-28T11:34:33;9.80;;;5.50;;
8399;SDS011;4237;47.030;15.396;2023-04-28T11:37:02;9.43;;;5.77;;
8399;SDS011;4237;47.030;15.396;2023-04-28T11:39:33;8.57;;;5.97;;
8399;SDS011;4237;47.030;15.396;2023-04-28T11:42:04;9.80;;;5.83;;
8399;SDS011;4237;47.030;15.396;2023-04-28T11:44:31;6.87;;;5.70;;
8399;SDS011;4237;47.030;15.396;2023-04-28T11:47:00;11.63;;;6.00;;
8399;SDS011;4237;47.030;15.396;2023-04-28T11:52:08;8.87;;;5.23;;
8399;SDS011;4237;47.030;15.396;2023-04-28T11:54:37;7.80;;;5.30;;
8399;SDS011;4237;47.030;15.396;2023-04-28T11:57:05;9.10;;;5.57;;
8399;SDS011;4237;47.030;15.396;2023-04-28T11:59:34;9.03;;;5.17;;
8399;SDS011;4237;47.030;15.396;2023-04-28T12:02:04;11.10;;;5.63;;
8399;SDS011;4237;47.030;15.396;2023-04-28T12:04:33;8.03;;;4.70;;
8399;SDS011;4237;47.030;15.396;2023-04-28T12:07:06;9.20;;;5.00;;
8399;SDS011;4237;47.030;15.396;2023-04-28T12:09:37;8.03;;;4.50;;
8399;SDS011;4237;47.030;15.396;2023-04-28T12:12:06;9.90;;;5.50;;
8399;SDS011;4237;47.030;15.396;2023-04-28T12:17:34;7.50;;;5.13;;
8399;SDS011;4237;47.030;15.396;2023-04-28T12:20:05;8.93;;;5.20;;
8399;SDS011;4237;47.030;15.396;2023-04-28T12:22:51;8.17;;;5.37;;
8399;SDS011;4237;47.030;15.396;2023-04-28T12:25:16;9.73;;;6.00;;
8399;SDS011;4237;47.030;15.396;2023-04-28T12:28:03;11.00;;;6.03;;
8399;SDS011;4237;47.030;15.396;2023-04-28T12:30:32;10.80;;;5.70;;
8399;SDS011;4237;47.030;15.396;2023-04-28T12:33:01;9.53;;;5.87;;
8399;SDS011;4237;47.030;15.396;2023-04-28T12:35:30;12.83;;;6.03;;
8399;SDS011;4237;47.030;15.396;2023-04-28T12:37:59;8.47;;;5.90;;
8399;SDS011;4237;47.030;15.396;2023-04-28T12:40:27;8.63;;;6.50;;
8399;SDS011;4237;47.030;15.396;2023-04-28T12:42:55;9.20;;;6.10;;
8399;SDS011;4237;47.030;15.396;2023-04-28T12:45:23;9.30;;;6.13;;
8399;SDS011;4237;47.030;15.396;2023-04-28T12:47:52;8.73;;;6.00;;
8399;SDS011;4237;47.030;15.396;2023-04-28T12:50:20;8.47;;;6.00;;
8399;SDS011;4237;47.030;15.396;2023-04-28T12:52:48;12.47;;;5.87;;
8399;SDS011;4237;47.030;15.396;2023-04-28T12:55:16;8.77;;;6.07;;
8399;SDS011;4237;47.030;15.396;2023-04-28T12:57:44;8.40;;;6.10;;
8399;SDS011;4237;47.030;15.396;2023-04-28T13:00:13;7.77;;;5.87;;
8399;SDS011;4237;47.030;15.396;2023-04-28T13:02:42;9.60;;;5.67;;
8399;SDS011;4237;47.030;15.396;2023-04-28T13:05:11;8.13;;;5.50;;
8399;SDS011;4237;47.030;15.396;2023-04-28T13:07:40;8.23;;;6.10;;
8399;SDS011;4237;47.030;15.396;2023-04-28T13:10:13;8.37;;;5.53;;
8399;SDS011;4237;47.030;15.396;2023-04-28T13:12:40;8.40;;;5.43;;
8399;SDS011;4237;47.030;15.396;2023-04-28T13:15:09;9.60;;;5.90;;
8399;SDS011;4237;47.030;15.396;2023-04-28T13:17:38;7.17;;;6.27;;
8399;SDS011;4237;47.030;15.396;2023-04-28T13:20:06;13.03;;;5.80;;
8399;SDS011;4237;47.030;15.396;2023-04-28T13:22:35;7.77;;;6.17;;
8399;SDS011;4237;47.030;15.396;2023-04-28T13:25:03;9.10;;;5.70;;
8399;SDS011;4237;47.030;15.396;2023-04-28T13:27:32;12.33;;;5.73;;
8399;SDS011;4237;47.030;15.396;2023-04-28T13:30:00;9.17;;;5.60;;
8399;SDS011;4237;47.030;15.396;2023-04-28T13:32:30;8.97;;;5.47;;
8399;SDS011;4237;47.030;15.396;2023-04-28T13:34:58;10.40;;;5.50;;
8399;SDS011;4237;47.030;15.396;2023-04-28T13:37:26;9.83;;;5.33;;
8399;SDS011;4237;47.030;15.396;2023-04-28T13:40:01;8.07;;;5.73;;
8399;SDS011;4237;47.030;15.396;2023-04-28T13:42:30;10.73;;;5.50;;
8399;SDS011;4237;47.030;15.396;2023-04-28T13:44:58;10.80;;;5.27;;
8399;SDS011;4237;47.030;15.396;2023-04-28T13:47:27;8.10;;;5.00;;
8399;SDS011;4237;47.030;15.396;2023-04-28T13:49:55;8.33;;;5.43;;
8399;SDS011;4237;47.030;15.396;2023-04-28T13:52:24;9.63;;;5.10;;
8399;SDS011;4237;47.030;15.396;2023-04-28T13:54:52;9.03;;;5.07;;
8399;SDS011;4237;47.030;15.396;2023-04-28T13:57:20;8.63;;;4.63;;
8399;SDS011;4237;47.030;15.396;2023-04-28T13:59:48;8.30;;;5.60;;
8399;SDS011;4237;47.030;15.396;2023-04-28T14:02:17;10.57;;;5.80;;
8399;SDS011;4237;47.030;15.396;2023-04-28T14:04:45;5.73;;;4.90;;
8399;SDS011;4237;47.030;15.396;2023-04-28T14:07:15;8.47;;;5.23;;
8399;SDS011;4237;47.030;15.396;2023-04-28T14:09:43;6.00;;;4.90;;
8399;SDS011;4237;47.030;15.396;2023-04-28T14:12:12;6.87;;;5.00;;
8399;SDS011;4237;47.030;15.396;2023-04-28T14:14:41;7.33;;;5.00;;
8399;SDS011;4237;47.030;15.396;2023-04-28T14:17:10;6.37;;;5.17;;
8399;SDS011;4237;47.030;15.396;2023-04-28T14:19:38;12.20;;;5.23;;
8399;SDS011;4237;47.030;15.396;2023-04-28T14:22:07;7.90;;;5.17;;
8399;SDS011;4237;47.030;15.396;2023-04-28T14:24:35;6.43;;;4.63;;
8399;SDS011;4237;47.030;15.396;2023-04-28T14:27:04;9.63;;;5.20;;
8399;SDS011;4237;47.030;15.396;2023-04-28T14:29:32;10.07;;;5.50;;
8399;SDS011;4237;47.030;15.396;2023-04-28T14:32:00;9.43;;;4.93;;
8399;SDS011;4237;47.030;15.396;2023-04-28T14:34:28;8.70;;;4.77;;
8399;SDS011;4237;47.030;15.396;2023-04-28T14:36:57;7.93;;;5.00;;
8399;SDS011;4237;47.030;15.396;2023-04-28T14:39:26;5.83;;;4.90;;
8399;SDS011;4237;47.030;15.396;2023-04-28T14:41:54;10.00;;;4.97;;
8399;SDS011;4237;47.030;15.396;2023-04-28T14:44:22;8.20;;;4.80;;
8399;SDS011;4237;47.030;15.396;2023-04-28T14:46:50;7.07;;;4.80;;
8399;SDS011;4237;47.030;15.396;2023-04-28T14:49:19;12.50;;;5.00;;
8399;SDS011;4237;47.030;15.396;2023-04-28T14:51:48;10.00;;;5.47;;
8399;SDS011;4237;47.030;15.396;2023-04-28T14:54:16;9.07;;;5.30;;
8399;SDS011;4237;47.030;15.396;2023-04-28T14:56:44;14.43;;;5.77;;
8399;SDS011;4237;47.030;15.396;2023-04-28T14:59:13;12.43;;;5.30;;
8399;SDS011;4237;47.030;15.396;2023-04-28T15:01:41;9.53;;;6.03;;
8399;SDS011;4237;47.030;15.396;2023-04-28T15:04:10;6.60;;;4.70;;
8399;SDS011;4237;47.030;15.396;2023-04-28T15:06:38;11.47;;;5.73;;
8399;SDS011;4237;47.030;15.396;2023-04-28T15:09:07;12.63;;;6.27;;
8399;SDS011;4237;47.030;15.396;2023-04-28T15:11:36;9.63;;;5.53;;
8399;SDS011;4237;47.030;15.396;2023-04-28T15:14:05;10.73;;;5.57;;
8399;SDS011;4237;47.030;15.396;2023-04-28T15:16:33;6.63;;;5.33;;
8399;SDS011;4237;47.030;15.396;2023-04-28T15:19:01;8.80;;;5.10;;
8399;SDS011;4237;47.030;15.396;2023-04-28T15:21:30;9.50;;;5.63;;
8399;SDS011;4237;47.030;15.396;2023-04-28T15:23:58;6.47;;;5.17;;
8399;SDS011;4237;47.030;15.396;2023-04-28T15:26:26;8.23;;;5.70;;
8399;SDS011;4237;47.030;15.396;2023-04-28T15:28:55;10.63;;;5.53;;
8399;SDS011;4237;47.030;15.396;2023-04-28T15:31:24;11.67;;;6.30;;